sensor_id;sensor_type;location;lat;lon;timestamp;temperature;humidity
16871;DHT22;8552;48.120;-1.456;2022-07-09T00:12:48;16.30;99.90
16871;DHT22;8552;48.120;-1.456;2022-07-09T00:15:14;16.30;99.90
16871;DHT22;8552;48.120;-1.456;2022-07-09T00:17:40;16.20;99.90
16871;DHT22;8552;48.120;-1.456;2022-07-09T00:20:06;16.10;99.90
16871;DHT22;8552;48.120;-1.456;2022-07-09T00:22:32;16.10;99.90
16871;DHT22;8552;48.120;-1.456;2022-07-09T00:24:59;16.00;99.90
16871;DHT22;8552;48.120;-1.456;2022-07-09T00:27:25;16.00;99.90
16871;DHT22;8552;48.120;-1.456;2022-07-09T00:29:51;15.90;99.90
16871;DHT22;8552;48.120;-1.456;2022-07-09T00:32:16;15.90;99.90
16871;DHT22;8552;48.120;-1.456;2022-07-09T00:34:43;15.90;99.90
16871;DHT22;8552;48.120;-1.456;2022-07-09T00:37:10;15.80;99.90
16871;DHT22;8552;48.120;-1.456;2022-07-09T00:39:35;15.80;99.90
16871;DHT22;8552;48.120;-1.456;2022-07-09T00:42:05;15.80;99.90
16871;DHT22;8552;48.120;-1.456;2022-07-09T00:44:32;15.70;99.90
16871;DHT22;8552;48.120;-1.456;2022-07-09T00:46:57;15.70;99.90
16871;DHT22;8552;48.120;-1.456;2022-07-09T00:49:27;15.70;99.90
16871;DHT22;8552;48.120;-1.456;2022-07-09T00:51:54;15.60;99.90
16871;DHT22;8552;48.120;-1.456;2022-07-09T00:54:19;15.60;99.90
16871;DHT22;8552;48.120;-1.456;2022-07-09T00:56:46;15.60;99.90
16871;DHT22;8552;48.120;-1.456;2022-07-09T00:59:12;15.50;99.90
16871;DHT22;8552;48.120;-1.456;2022-07-09T01:01:39;15.50;99.90
16871;DHT22;8552;48.120;-1.456;2022-07-09T01:04:06;15.40;99.90
16871;DHT22;8552;48.120;-1.456;2022-07-09T01:06:32;15.50;99.90
16871;DHT22;8552;48.120;-1.456;2022-07-09T01:09:01;15.40;99.90
16871;DHT22;8552;48.120;-1.456;2022-07-09T01:11:27;15.30;99.90
16871;DHT22;8552;48.120;-1.456;2022-07-09T01:13:53;15.30;99.90
16871;DHT22;8552;48.120;-1.456;2022-07-09T01:16:18;15.30;99.90
16871;DHT22;8552;48.120;-1.456;2022-07-09T01:18:48;15.30;99.90
16871;DHT22;8552;48.120;-1.456;2022-07-09T01:21:14;15.20;99.90
16871;DHT22;8552;48.120;-1.456;2022-07-09T01:23:40;15.20;99.90
16871;DHT22;8552;48.120;-1.456;2022-07-09T01:26:06;15.10;99.90
16871;DHT22;8552;48.120;-1.456;2022-07-09T01:28:33;15.10;99.90
16871;DHT22;8552;48.120;-1.456;2022-07-09T01:30:58;15.00;99.90
16871;DHT22;8552;48.120;-1.456;2022-07-09T01:33:25;15.00;99.90
16871;DHT22;8552;48.120;-1.456;2022-07-09T01:35:51;14.90;99.90
16871;DHT22;8552;48.120;-1.456;2022-07-09T01:38:17;14.90;99.90
16871;DHT22;8552;48.120;-1.456;2022-07-09T01:40:43;14.80;99.90
16871;DHT22;8552;48.120;-1.456;2022-07-09T01:43:08;14.80;99.90
16871;DHT22;8552;48.120;-1.456;2022-07-09T01:45:34;14.70;99.90
16871;DHT22;8552;48.120;-1.456;2022-07-09T01:48:00;14.70;99.90
16871;DHT22;8552;48.120;-1.456;2022-07-09T01:50:26;14.60;99.90
16871;DHT22;8552;48.120;-1.456;2022-07-09T01:52:52;14.60;99.90
16871;DHT22;8552;48.120;-1.456;2022-07-09T01:55:18;14.50;99.90
16871;DHT22;8552;48.120;-1.456;2022-07-09T01:57:43;14.50;99.90
16871;DHT22;8552;48.120;-1.456;2022-07-09T02:00:09;14.50;99.90
16871;DHT22;8552;48.120;-1.456;2022-07-09T02:02:36;14.50;99.90
16871;DHT22;8552;48.120;-1.456;2022-07-09T02:05:03;14.40;99.90
16871;DHT22;8552;48.120;-1.456;2022-07-09T02:07:29;14.40;99.90
16871;DHT22;8552;48.120;-1.456;2022-07-09T02:09:54;14.30;99.90
16871;DHT22;8552;48.120;-1.456;2022-07-09T02:12:20;14.30;99.90
16871;DHT22;8552;48.120;-1.456;2022-07-09T02:14:46;14.20;99.90
16871;DHT22;8552;48.120;-1.456;2022-07-09T02:17:12;14.30;99.90
16871;DHT22;8552;48.120;-1.456;2022-07-09T02:19:37;14.20;99.90
16871;DHT22;8552;48.120;-1.456;2022-07-09T02:22:03;14.20;99.90
16871;DHT22;8552;48.120;-1.456;2022-07-09T02:24:29;14.20;99.90
16871;DHT22;8552;48.120;-1.456;2022-07-09T02:26:55;14.20;99.90
16871;DHT22;8552;48.120;-1.456;2022-07-09T02:29:20;14.20;99.90
16871;DHT22;8552;48.120;-1.456;2022-07-09T02:31:46;14.10;99.90
16871;DHT22;8552;48.120;-1.456;2022-07-09T02:34:12;14.10;99.90
16871;DHT22;8552;48.120;-1.456;2022-07-09T02:36:37;14.10;99.90
16871;DHT22;8552;48.120;-1.456;2022-07-09T02:39:03;14.10;99.90
16871;DHT22;8552;48.120;-1.456;2022-07-09T02:41:29;14.00;99.90
16871;DHT22;8552;48.120;-1.456;2022-07-09T02:43:55;14.00;99.90
16871;DHT22;8552;48.120;-1.456;2022-07-09T02:46:20;14.00;99.90
16871;DHT22;8552;48.120;-1.456;2022-07-09T02:48:46;13.90;99.90
16871;DHT22;8552;48.120;-1.456;2022-07-09T02:51:12;13.90;99.90
16871;DHT22;8552;48.120;-1.456;2022-07-09T02:53:37;13.90;99.90
16871;DHT22;8552;48.120;-1.456;2022-07-09T02:56:04;13.90;99.90
16871;DHT22;8552;48.120;-1.456;2022-07-09T02:58:31;13.80;99.90
16871;DHT22;8552;48.120;-1.456;2022-07-09T03:00:56;13.80;99.90
16871;DHT22;8552;48.120;-1.456;2022-07-09T03:03:22;13.70;99.90
16871;DHT22;8552;48.120;-1.456;2022-07-09T03:05:49;13.70;99.90
16871;DHT22;8552;48.120;-1.456;2022-07-09T03:08:15;13.70;99.90
16871;DHT22;8552;48.120;-1.456;2022-07-09T03:10:40;13.60;99.90
16871;DHT22;8552;48.120;-1.456;2022-07-09T03:13:06;13.60;99.90
16871;DHT22;8552;48.120;-1.456;2022-07-09T03:15:32;13.60;99.90
16871;DHT22;8552;48.120;-1.456;2022-07-09T03:17:57;13.50;99.90
16871;DHT22;8552;48.120;-1.456;2022-07-09T03:20:23;13.50;99.90
16871;DHT22;8552;48.120;-1.456;2022-07-09T03:22:49;13.50;99.90
16871;DHT22;8552;48.120;-1.456;2022-07-09T03:25:14;13.50;99.90
16871;DHT22;8552;48.120;-1.456;2022-07-09T03:27:40;13.40;99.90
16871;DHT22;8552;48.120;-1.456;2022-07-09T03:30:06;13.30;99.90
16871;DHT22;8552;48.120;-1.456;2022-07-09T03:32:32;13.40;99.90
16871;DHT22;8552;48.120;-1.456;2022-07-09T03:34:58;13.30;99.90
16871;DHT22;8552;48.120;-1.456;2022-07-09T03:37:23;13.30;99.90
16871;DHT22;8552;48.120;-1.456;2022-07-09T03:39:49;13.20;99.90
16871;DHT22;8552;48.120;-1.456;2022-07-09T03:42:15;13.10;99.90
16871;DHT22;8552;48.120;-1.456;2022-07-09T03:44:41;13.10;99.90
16871;DHT22;8552;48.120;-1.456;2022-07-09T03:47:07;13.10;99.90
16871;DHT22;8552;48.120;-1.456;2022-07-09T03:49:33;13.00;99.90
16871;DHT22;8552;48.120;-1.456;2022-07-09T03:51:59;13.00;99.90
16871;DHT22;8552;48.120;-1.456;2022-07-09T03:54:25;13.00;99.90
16871;DHT22;8552;48.120;-1.456;2022-07-09T03:56:51;12.90;99.90
16871;DHT22;8552;48.120;-1.456;2022-07-09T03:59:18;12.90;99.90
16871;DHT22;8552;48.120;-1.456;2022-07-09T04:01:44;12.90;99.90
16871;DHT22;8552;48.120;-1.456;2022-07-09T04:04:10;12.80;99.90
16871;DHT22;8552;48.120;-1.456;2022-07-09T04:06:36;12.80;99.90
16871;DHT22;8552;48.120;-1.456;2022-07-09T04:09:02;12.80;99.90
16871;DHT22;8552;48.120;-1.456;2022-07-09T04:11:35;12.70;99.90
16871;DHT22;8552;48.120;-1.456;2022-07-09T04:14:02;12.70;99.90
16871;DHT22;8552;48.120;-1.456;2022-07-09T04:16:28;12.70;99.90
16871;DHT22;8552;48.120;-1.456;2022-07-09T04:18:54;12.70;99.90
16871;DHT22;8552;48.120;-1.456;2022-07-09T04:21:20;12.60;99.90
16871;DHT22;8552;48.120;-1.456;2022-07-09T04:23:49;12.60;99.90
16871;DHT22;8552;48.120;-1.456;2022-07-09T04:26:16;12.60;99.90
16871;DHT22;8552;48.120;-1.456;2022-07-09T04:28:42;12.50;99.90
16871;DHT22;8552;48.120;-1.456;2022-07-09T04:31:07;12.60;99.90
16871;DHT22;8552;48.120;-1.456;2022-07-09T04:33:33;12.50;99.90
16871;DHT22;8552;48.120;-1.456;2022-07-09T04:35:59;12.50;99.90
16871;DHT22;8552;48.120;-1.456;2022-07-09T04:38:25;12.50;99.90
16871;DHT22;8552;48.120;-1.456;2022-07-09T04:40:51;12.50;99.90
16871;DHT22;8552;48.120;-1.456;2022-07-09T04:43:17;12.40;99.90
16871;DHT22;8552;48.120;-1.456;2022-07-09T04:45:43;12.40;99.90
16871;DHT22;8552;48.120;-1.456;2022-07-09T04:48:09;12.40;99.90
16871;DHT22;8552;48.120;-1.456;2022-07-09T04:50:35;12.40;99.90
16871;DHT22;8552;48.120;-1.456;2022-07-09T04:53:00;12.40;99.90
16871;DHT22;8552;48.120;-1.456;2022-07-09T04:55:26;12.50;99.90
16871;DHT22;8552;48.120;-1.456;2022-07-09T04:57:52;12.50;99.90
16871;DHT22;8552;48.120;-1.456;2022-07-09T05:00:17;12.40;99.90
16871;DHT22;8552;48.120;-1.456;2022-07-09T05:02:44;12.50;99.90
16871;DHT22;8552;48.120;-1.456;2022-07-09T05:05:10;12.50;99.90
16871;DHT22;8552;48.120;-1.456;2022-07-09T05:07:36;12.50;99.90
16871;DHT22;8552;48.120;-1.456;2022-07-09T05:10:03;12.50;99.90
16871;DHT22;8552;48.120;-1.456;2022-07-09T05:12:30;12.50;99.90
16871;DHT22;8552;48.120;-1.456;2022-07-09T05:14:56;12.60;99.90
16871;DHT22;8552;48.120;-1.456;2022-07-09T05:17:23;12.60;99.90
16871;DHT22;8552;48.120;-1.456;2022-07-09T05:19:49;12.60;99.90
16871;DHT22;8552;48.120;-1.456;2022-07-09T05:22:15;12.60;99.90
16871;DHT22;8552;48.120;-1.456;2022-07-09T05:24:41;12.70;99.90
16871;DHT22;8552;48.120;-1.456;2022-07-09T05:27:07;12.70;99.90
16871;DHT22;8552;48.120;-1.456;2022-07-09T05:29:35;12.70;99.90
16871;DHT22;8552;48.120;-1.456;2022-07-09T05:32:01;12.80;99.90
16871;DHT22;8552;48.120;-1.456;2022-07-09T05:34:26;12.90;99.90
16871;DHT22;8552;48.120;-1.456;2022-07-09T05:36:52;13.00;99.90
16871;DHT22;8552;48.120;-1.456;2022-07-09T05:39:18;13.00;99.90
16871;DHT22;8552;48.120;-1.456;2022-07-09T05:41:44;13.10;99.90
16871;DHT22;8552;48.120;-1.456;2022-07-09T05:44:10;13.10;99.90
16871;DHT22;8552;48.120;-1.456;2022-07-09T05:46:35;13.20;99.90
16871;DHT22;8552;48.120;-1.456;2022-07-09T05:49:02;13.30;99.90
16871;DHT22;8552;48.120;-1.456;2022-07-09T05:51:28;13.30;99.90
16871;DHT22;8552;48.120;-1.456;2022-07-09T05:53:53;13.50;99.90
16871;DHT22;8552;48.120;-1.456;2022-07-09T05:56:19;13.60;99.90
16871;DHT22;8552;48.120;-1.456;2022-07-09T05:58:46;13.80;99.90
16871;DHT22;8552;48.120;-1.456;2022-07-09T06:01:11;13.90;99.90
16871;DHT22;8552;48.120;-1.456;2022-07-09T06:03:41;14.10;99.90
16871;DHT22;8552;48.120;-1.456;2022-07-09T06:06:08;14.20;99.90
16871;DHT22;8552;48.120;-1.456;2022-07-09T06:08:34;14.20;99.90
16871;DHT22;8552;48.120;-1.456;2022-07-09T06:11:00;14.40;99.90
16871;DHT22;8552;48.120;-1.456;2022-07-09T06:13:26;14.50;99.90
16871;DHT22;8552;48.120;-1.456;2022-07-09T06:15:53;14.70;99.90
16871;DHT22;8552;48.120;-1.456;2022-07-09T06:18:18;14.80;99.90
16871;DHT22;8552;48.120;-1.456;2022-07-09T06:20:45;15.00;99.90
16871;DHT22;8552;48.120;-1.456;2022-07-09T06:23:11;15.10;99.90
16871;DHT22;8552;48.120;-1.456;2022-07-09T06:25:37;15.40;99.90
16871;DHT22;8552;48.120;-1.456;2022-07-09T06:28:04;15.60;99.90
16871;DHT22;8552;48.120;-1.456;2022-07-09T06:30:29;15.60;99.90
16871;DHT22;8552;48.120;-1.456;2022-07-09T06:32:56;15.80;99.90
16871;DHT22;8552;48.120;-1.456;2022-07-09T06:35:22;16.00;99.90
16871;DHT22;8552;48.120;-1.456;2022-07-09T06:37:48;16.10;99.90
16871;DHT22;8552;48.120;-1.456;2022-07-09T06:40:14;16.30;99.90
16871;DHT22;8552;48.120;-1.456;2022-07-09T06:42:40;16.50;99.90
16871;DHT22;8552;48.120;-1.456;2022-07-09T06:45:06;16.80;99.90
16871;DHT22;8552;48.120;-1.456;2022-07-09T06:47:32;17.00;99.90
16871;DHT22;8552;48.120;-1.456;2022-07-09T06:49:58;17.10;99.90
16871;DHT22;8552;48.120;-1.456;2022-07-09T06:52:24;17.30;99.90
16871;DHT22;8552;48.120;-1.456;2022-07-09T06:54:49;17.60;99.90
16871;DHT22;8552;48.120;-1.456;2022-07-09T06:57:15;17.80;99.90
16871;DHT22;8552;48.120;-1.456;2022-07-09T06:59:42;18.00;99.90
16871;DHT22;8552;48.120;-1.456;2022-07-09T07:02:08;18.30;99.90
16871;DHT22;8552;48.120;-1.456;2022-07-09T07:04:34;18.50;99.90
16871;DHT22;8552;48.120;-1.456;2022-07-09T07:07:00;18.70;99.90
16871;DHT22;8552;48.120;-1.456;2022-07-09T07:09:25;18.90;99.90
16871;DHT22;8552;48.120;-1.456;2022-07-09T07:11:51;19.10;99.90
16871;DHT22;8552;48.120;-1.456;2022-07-09T07:14:17;19.40;99.90
16871;DHT22;8552;48.120;-1.456;2022-07-09T07:16:43;19.60;99.90
16871;DHT22;8552;48.120;-1.456;2022-07-09T07:19:09;19.80;99.90
16871;DHT22;8552;48.120;-1.456;2022-07-09T07:21:36;20.10;99.90
16871;DHT22;8552;48.120;-1.456;2022-07-09T07:24:03;20.30;99.90
16871;DHT22;8552;48.120;-1.456;2022-07-09T07:26:28;20.50;99.90
16871;DHT22;8552;48.120;-1.456;2022-07-09T07:28:54;20.70;99.90
16871;DHT22;8552;48.120;-1.456;2022-07-09T07:31:20;21.00;99.90
16871;DHT22;8552;48.120;-1.456;2022-07-09T07:33:46;20.90;99.90
16871;DHT22;8552;48.120;-1.456;2022-07-09T07:36:12;20.80;99.90
16871;DHT22;8552;48.120;-1.456;2022-07-09T07:38:38;21.10;99.90
